Latest Weather Observations for Eucla

IDW60801

Issued at 4:34 am WST Monday 29 August 2016 (issued every 30 minutes, with the page automatically refreshed every 10 minutes)

About weather observations | Map of weather stations | Latest weather observations for WA | Other Formats
Station Details ID: 011003 Name: EUCLA Lat: -31.68 Lon: 128.90 Height: 93.1 m
Data from the previous 72 hours. | See also: Recent months at Eucla
Date/Time
WST
Temp
°C
App
Temp
°C
Dew
Point
°C
Rel
Hum
%
Delta-T
°C
Wind Press
QNH
hPa
Press
MSL
hPa
Rain since
9am
mm
Dir  Spd
km/h
Gust
km/h
Spd
kts
Gust
kts
29/04:30am 9.7 5.2 4.3 69 2.4 NNW 17 20 9 11 1005.2 1005.2 0.0
29/04:00am 9.9 5.4 4.3 68 2.5 N 17 26 9 14 1004.9 1004.9 0.0
29/03:30am 9.9 5.4 4.3 68 2.5 N 17 22 9 12 1004.8 1004.8 0.0
29/03:00am 9.6 5.5 4.2 69 2.4 NNW 15 19 8 10 1004.7 1004.7 0.0
29/02:30am 9.8 5.7 4.2 68 2.5 NNW 15 19 8 10 1004.6 1004.6 0.0
29/02:00am 9.8 6.0 4.0 67 2.6 N 13 17 7 9 1004.6 1004.6 0.0
29/01:30am 11.1 6.7 4.6 64 2.9 NNW 17 24 9 13 1004.8 1004.8 0.0
29/01:00am 10.9 6.8 4.1 63 3.1 NNW 15 20 8 11 1004.9 1004.9 0.0
29/12:30am 11.1 7.0 4.1 62 3.1 NNW 15 19 8 10 1005.1 1005.1 0.0
29/12:00am 11.5 7.3 3.8 59 3.5 NNW 15 19 8 10 1005.2 1005.2 0.0
 
Date/Time
WST
Temp
°C
App
Temp
°C
Dew
Point
°C
Rel
Hum
%
Delta-T
°C
Wind Press
QNH
hPa
Press
MSL
hPa
Rain since
9am
mm
Dir  Spd
km/h
Gust
km/h
Spd
kts
Gust
kts
28/11:30pm 11.1 7.2 3.4 59 3.4 NNW 13 17 7 9 1005.3 1005.3 0.0
28/11:00pm 10.8 6.9 3.4 60 3.3 N 13 15 7 8 1005.3 1005.3 0.0
28/10:30pm 11.4 7.9 3.4 58 3.5 N 11 13 6 7 1005.5 1005.5 0.0
28/10:00pm 13.1 9.6 3.5 52 4.3 NW 11 13 6 7 1005.5 1005.5 0.0
28/09:30pm 14.8 11.7 3.6 47 5.1 NW 9 13 5 7 1005.9 1005.9 0.0
28/09:00pm 16.0 12.6 4.1 45 5.6 WNW 11 15 6 8 1005.9 1005.9 0.0
28/08:30pm 15.3 12.3 4.1 47 5.2 NNW 9 9 5 5 1005.9 1005.9 0.0
28/08:00pm 15.9 13.3 4.0 45 5.6 NW 7 9 4 5 1005.8 1005.8 0.0
28/07:30pm 17.0 13.6 4.0 42 6.1 WNW 11 15 6 8 1005.7 1005.7 0.0
28/07:00pm 17.6 13.4 3.9 40 6.5 W 15 26 8 14 1005.4 1005.4 0.0
28/06:30pm 17.9 13.8 4.1 40 6.5 W 15 24 8 13 1004.9 1004.9 0.0
28/06:00pm 17.8 14.0 4.0 40 6.5 WNW 13 20 7 11 1004.3 1004.3 0.0
28/05:30pm 18.6 14.4 3.6 37 7.1 W 15 26 8 14 1003.8 1003.8 0.0
28/05:00pm 20.0 14.7 2.8 32 8.1 WNW 20 35 11 19 1003.1 1003.1 0.0
28/04:30pm 21.4 14.3 1.1 26 9.3 NW 28 50 15 27 1002.6 1002.6 0.0
28/04:08pm 22.2 15.3 2.8 28 9.3 NW 28 50 15 27 1002.2 1002.2 0.0
28/04:00pm 22.2 15.8 3.3 29 9.1 NW 26 37 14 20 1002.0 1002.0 0.0
28/03:37pm 22.9 15.9 3.9 29 9.3 NW 30 48 16 26 1001.7 1001.7 0.0
28/03:30pm 22.6 15.1 3.7 29 9.2 NW 32 43 17 23 1001.6 1001.6 0.0
28/03:09pm 22.3 15.4 4.4 31 8.8 NW 30 48 16 26 1001.5 1001.5 0.0
28/03:00pm 22.1 14.7 4.2 31 8.8 NW 32 44 17 24 1001.5 1001.5 0.0
28/02:30pm 22.3 15.1 4.8 32 8.7 NW 32 50 17 27 1001.3 1001.3 0.0
28/02:01pm 22.6 15.2 5.1 32 8.7 NNW 33 52 18 28 1001.3 1001.3 0.0
28/02:00pm 23.1 15.3 5.1 31 9.1 NNW 35 52 19 28 1001.2 1001.2 0.0
28/01:30pm 23.6 16.5 6.4 33 8.9 NW 33 56 18 30 1001.5 1001.5 0.0
28/01:00pm 23.0 16.6 7.1 36 8.3 NW 30 50 16 27 1001.7 1001.7 0.0
28/12:35pm 22.3 15.9 6.9 37 7.9 NW 30 48 16 26 1001.9 1001.9 0.0
28/12:30pm 22.2 15.3 6.4 36 8.1 NW 32 46 17 25 1001.9 1001.9 0.0
28/12:01pm 23.1 16.3 6.8 35 8.4 NW 32 50 17 27 1001.9 1001.9 0.0
28/12:00pm 23.3 16.9 7.0 35 8.5 NW 30 41 16 22 1001.9 1001.9 0.0
28/11:36am 23.0 16.3 7.5 37 8.1 NW 32 50 17 27 1002.3 1002.3 0.0
28/11:30am 22.9 16.1 7.1 36 8.2 NW 32 44 17 24 1002.3 1002.3 0.0
28/11:02am 22.6 16.8 8.0 39 7.7 NW 28 46 15 25 1002.6 1002.6 0.0
28/11:00am 22.9 16.7 7.8 38 8.0 NW 30 46 16 25 1002.5 1002.5 0.0
28/10:31am 21.8 15.5 9.0 44 6.8 NW 32 48 17 26 1003.1 1003.1 0.0
28/10:30am 21.5 15.2 9.1 45 6.6 NW 32 48 17 26 1003.1 1003.1 0.0
28/10:08am 21.6 16.2 9.5 46 6.5 NW 28 48 15 26 1003.6 1003.6 0.0
28/10:00am 21.1 15.3 9.4 47 6.3 NW 30 44 16 24 1003.7 1003.7 0.0
28/09:31am 19.8 14.0 9.4 51 5.5 NW 30 48 16 26 1003.9 1003.9 0.0
28/09:30am 19.3 13.4 9.2 52 5.3 NW 30 46 16 25 1003.9 1003.9 0.0
28/09:03am 19.2 12.9 9.1 52 5.3 NW 32 50 17 27 1003.8 1003.8 0.0
28/09:00am 19.3 12.9 9.2 52 5.4 NW 33 50 18 27 1003.9 1003.9 0.0
28/08:40am 18.8 13.3 9.0 53 5.1 NW 28 48 15 26 1003.8 1003.8 0.0
28/08:30am 17.8 12.9 8.6 55 4.8 NW 24 43 13 23 1003.8 1003.8 0.0
28/08:00am 18.2 12.9 8.5 53 5.0 NW 26 35 14 19 1003.8 1003.8 0.0
28/07:30am 17.6 14.2 9.0 57 4.5 NNW 17 24 9 13 1003.9 1003.9 0.0
28/07:00am 16.7 14.3 8.7 59 4.1 NNW 11 19 6 10 1003.9 1003.9 0.0
28/06:30am 17.0 14.2 8.4 57 4.4 WNW 13 22 7 12 1004.6 1004.6 0.0
28/06:00am 15.9 13.5 8.6 62 3.7 WNW 11 15 6 8 1004.6 1004.6 0.0
28/05:30am 15.7 13.1 9.4 66 3.3 W 13 20 7 11 1003.8 1003.8 0.0
28/05:00am 16.0 13.0 9.2 64 3.5 W 15 22 8 12 1003.6 1003.6 0.0
28/04:30am 15.3 12.0 9.4 68 3.1 WSW 17 22 9 12 1002.9 1002.9 0.0
28/04:00am 15.8 12.7 7.3 57 4.3 WSW 13 19 7 10 1002.5 1002.5 0.0
28/03:30am 16.0 13.2 5.0 48 5.2 W 9 11 5 6 1002.2 1002.2 0.0
28/03:00am 16.1 13.4 3.9 44 5.7 W 7 9 4 5 1002.4 1002.4 0.0
28/02:30am 17.3 14.0 2.5 37 6.8 WSW 9 13 5 7 1002.6 1002.6 0.0
28/02:00am 19.1 15.1 -2.5 23 9.1 NW 9 15 5 8 1002.6 1002.6 0.0
28/01:30am 21.0 15.3 -3.5 19 10.2 WNW 17 30 9 16 1003.6 1003.6 0.0
28/01:00am 18.4 12.5 -2.5 24 8.7 NNE 19 28 10 15 1002.4 1002.4 0.0
28/12:30am 18.1 12.6 -2.2 25 8.5 NNE 17 30 9 16 1003.1 1003.1 0.0
28/12:00am 18.6 13.1 -2.3 24 8.8 NNE 17 28 9 15 1003.9 1003.9 0.0
 
Date/Time
WST
Temp
°C
App
Temp
°C
Dew
Point
°C
Rel
Hum
%
Delta-T
°C
Wind Press
QNH
hPa
Press
MSL
hPa
Rain since
9am
mm
Dir  Spd
km/h
Gust
km/h
Spd
kts
Gust
kts
27/11:30pm 19.3 12.4 -2.3 23 9.1 NNE 24 39 13 21 1004.0 1004.0 0.0
27/11:00pm 18.6 12.1 -2.3 24 8.8 NNE 22 32 12 17 1004.6 1004.6 0.0
27/10:30pm 17.6 11.7 -2.6 25 8.3 NNE 19 30 10 16 1005.0 1005.0 0.0
27/10:00pm 17.5 11.5 -2.7 25 8.3 NNE 19 26 10 14 1005.6 1005.6 0.0
27/09:30pm 17.0 11.4 -2.6 26 8.0 NNE 17 24 9 13 1006.2 1006.2 0.0
27/09:00pm 17.2 12.0 -2.4 26 8.1 NNE 15 22 8 12 1006.5 1006.5 0.0
27/08:30pm 17.2 12.0 -2.4 26 8.1 NNE 15 20 8 11 1007.1 1007.1 0.0
27/08:00pm 18.0 12.8 -2.8 24 8.6 NNE 15 19 8 10 1007.2 1007.2 0.0
27/07:30pm 19.0 13.8 -2.6 23 9.0 NNE 15 24 8 13 1007.2 1007.2 0.0
27/07:00pm 18.8 14.0 -2.7 23 9.0 NNE 13 17 7 9 1007.6 1007.6 0.0
27/06:30pm 19.2 14.4 -2.4 23 9.1 NNE 13 15 7 8 1007.7 1007.7 0.0
27/06:00pm 20.0 14.8 -3.0 21 9.6 NNE 15 19 8 10 1007.3 1007.3 0.0
27/05:30pm 20.8 16.3 -3.0 20 10.0 N 11 13 6 7 1007.4 1007.4 0.0
27/05:00pm 22.0 17.1 -3.4 18 10.8 N 13 17 7 9 1006.9 1006.9 0.0
27/04:30pm 23.0 17.3 -4.1 16 11.4 N 17 26 9 14 1006.9 1006.9 0.0
27/04:00pm 23.6 17.2 -4.5 15 11.8 N 20 32 11 17 1007.3 1007.3 0.0
27/03:30pm 23.8 17.7 -3.5 16 11.7 NNW 19 28 10 15 1007.2 1007.2 0.0
27/03:00pm 24.0 17.4 -3.3 16 11.8 NNW 22 39 12 21 1007.5 1007.5 0.0
27/02:30pm 24.1 17.4 -4.1 15 12.0 NNW 22 35 12 19 1007.6 1007.6 0.0
27/02:00pm 24.2 16.8 -4.0 15 12.0 NNW 26 37 14 20 1008.1 1008.0 0.0
27/01:30pm 24.1 16.6 -4.1 15 12.0 NNW 26 39 14 21 1008.6 1008.5 0.0
27/01:00pm 23.8 16.0 -3.5 16 11.7 NNW 28 39 15 21 1008.9 1008.8 0.0
27/12:30pm 23.3 15.2 -3.1 17 11.3 NNW 30 44 16 24 1009.6 1009.5 0.0
27/12:15pm 23.0 15.3 -3.3 17 11.2 N 28 46 15 25 1009.8 1009.7 0.0
27/12:00pm 22.9 15.5 -3.4 17 11.2 NNW 26 39 14 21 1010.0 1009.9 0.0
27/11:30am 22.2 14.9 -2.5 19 10.6 NNW 26 41 14 22 1010.7 1010.7 0.0
27/11:00am 21.5 14.7 -1.7 21 10.1 NNW 24 39 13 21 1011.3 1011.3 0.0
27/10:30am 20.3 13.5 -1.5 23 9.4 N 24 39 13 21 1011.8 1011.8 0.0
27/10:00am 19.6 12.8 -2.1 23 9.2 NNW 24 37 13 20 1012.4 1012.4 0.0
27/09:30am 19.2 12.0 -1.8 24 8.9 N 26 37 14 20 1012.6 1012.6 0.0
27/09:00am 17.6 10.8 -1.6 27 8.1 N 24 33 13 18 1013.0 1013.0 0.0
27/08:30am 16.7 9.5 -1.9 28 7.7 N 26 39 14 21 1013.0 1013.0 0.0
27/08:00am 15.1 8.0 -1.5 32 6.8 N 26 39 14 21 1013.1 1013.1 0.0
27/07:30am 13.9 7.2 -1.3 35 6.2 N 24 33 13 18 1013.1 1013.1 0.0
27/07:00am 13.2 6.5 -1.2 37 5.8 N 24 33 13 18 1013.1 1013.1 0.0
27/06:30am 12.5 5.8 -1.4 38 5.6 N 24 33 13 18 1013.1 1013.1 0.0
27/06:00am 12.1 5.0 -1.1 40 5.3 N 26 37 14 20 1013.2 1013.2 0.0
27/05:30am 11.8 5.1 -1.0 41 5.1 N 24 32 13 17 1013.2 1013.2 0.0
27/05:00am 11.6 5.3 -1.2 41 5.1 N 22 30 12 16 1013.3 1013.3 0.0
27/04:30am 11.8 5.9 -1.0 41 5.1 N 20 28 11 15 1013.4 1013.4 0.0
27/04:00am 12.1 6.2 -1.1 40 5.3 N 20 32 11 17 1013.8 1013.8 0.0
27/03:30am 12.4 6.7 -1.1 39 5.4 N 19 26 10 14 1013.9 1013.9 0.0
27/03:00am 11.7 6.4 -0.4 43 4.9 N 17 26 9 14 1014.2 1014.2 0.0
27/02:30am 11.7 6.5 -0.1 44 4.8 N 17 20 9 11 1014.6 1014.6 0.0
27/02:00am 11.7 6.9 0.2 45 4.7 N 15 19 8 10 1014.9 1014.9 0.0
27/01:30am 11.5 6.3 0.0 45 4.7 N 17 26 9 14 1015.2 1015.2 0.0
27/01:00am 11.3 5.7 0.1 46 4.6 N 19 28 10 15 1015.3 1015.3 0.0
27/12:30am 11.3 5.8 0.4 47 4.5 N 19 26 10 14 1015.9 1015.9 0.0
27/12:00am 11.0 5.5 0.7 49 4.3 NNE 19 24 10 13 1016.3 1016.3 0.0
 
Date/Time
WST
Temp
°C
App
Temp
°C
Dew
Point
°C
Rel
Hum
%
Delta-T
°C
Wind Press
QNH
hPa
Press
MSL
hPa
Rain since
9am
mm
Dir  Spd
km/h
Gust
km/h
Spd
kts
Gust
kts
26/11:30pm 11.4 6.0 1.1 49 4.3 NNE 19 28 10 15 1016.5 1016.5 0.0
26/11:00pm 11.0 6.0 1.3 51 4.1 NNE 17 20 9 11 1016.9 1016.9 0.0
26/10:30pm 11.2 6.6 1.5 51 4.1 NNE 15 19 8 10 1017.3 1017.3 0.0
26/10:00pm 11.9 7.7 1.8 50 4.3 NNE 13 19 7 10 1017.8 1017.8 0.0
26/09:30pm 11.6 7.5 2.1 52 4.1 N 13 15 7 8 1018.2 1018.2 0.0
26/09:00pm 12.5 8.8 2.1 49 4.5 NNE 11 15 6 8 1018.1 1018.1 0.0
26/08:30pm 13.1 9.0 2.1 47 4.8 NNE 13 17 7 9 1018.2 1018.2 0.0
26/08:00pm 13.6 9.5 2.2 46 5.0 NNE 13 19 7 10 1018.5 1018.5 0.0
26/07:30pm 12.4 8.7 2.3 50 4.4 NNE 11 13 6 7 1018.7 1018.7 0.0
26/07:00pm 12.4 8.8 3.1 53 4.1 NNE 11 13 6 7 1018.6 1018.6 0.0
26/06:30pm 12.2 9.0 4.9 61 3.4 NE 11 13 6 7 1018.6 1018.6 0.0
26/06:00pm 11.7 9.4 7.4 75 2.1 ENE 9 11 5 6 1018.7 1018.7 0.0
26/05:30pm 12.1 10.0 8.4 78 1.8 E 9 11 5 6 1018.5 1018.5 0.0
26/05:00pm 13.2 11.7 9.1 76 2.1 ESE 7 11 4 6 1018.4 1018.4 0.0
26/04:30pm 14.8 12.6 9.2 69 2.9 NNE 11 19 6 10 1018.5 1018.5 0.0
26/04:00pm 15.9 13.8 6.6 54 4.6 NNE 7 13 4 7 1018.2 1018.2 0.0
26/03:30pm 15.6 12.6 9.3 66 3.3 ENE 15 26 8 14 1018.7 1018.7 0.0
26/03:00pm 15.7 13.4 9.1 65 3.4 ENE 11 20 6 11 1018.9 1018.9 0.0
26/02:30pm 16.2 14.1 8.4 60 4.0 N 9 17 5 9 1019.3 1019.3 0.0
26/02:00pm 18.8 13.3 1.8 32 7.7 N 20 28 11 15 1019.6 1019.6 0.0
26/01:30pm 19.2 14.9 3.0 34 7.6 NNW 15 30 8 16 1020.1 1020.1 0.0
26/01:00pm 19.4 15.5 3.6 35 7.5 NNW 13 20 7 11 1020.6 1020.6 0.0
26/12:30pm 18.8 14.9 3.4 36 7.2 N 13 24 7 13 1021.2 1021.2 0.0
26/12:00pm 18.8 14.7 4.2 38 7.0 NNE 15 26 8 14 1021.8 1021.8 0.0
26/11:30am 18.4 13.9 4.2 39 6.8 N 17 26 9 14 1022.6 1022.6 0.0
26/11:00am 17.6 13.6 4.9 43 6.1 NNE 15 28 8 15 1023.0 1023.0 0.0
26/10:30am 17.0 13.1 5.3 46 5.6 NNE 15 26 8 14 1024.0 1024.0 0.0
26/10:00am 16.4 12.0 6.5 52 4.8 NNE 19 26 10 14 1024.5 1024.5 0.0
26/09:30am 15.8 11.9 7.1 56 4.3 NNE 17 26 9 14 1024.8 1024.8 0.0
26/09:00am 14.7 10.8 7.0 60 3.8 N 17 26 9 14 1025.1 1025.1 0.0
26/08:30am 13.7 9.6 7.9 68 2.9 NNE 19 26 10 14 1025.5 1025.5 0.0
26/08:00am 12.2 8.9 8.1 76 2.0 N 15 24 8 13 1025.5 1025.5 0.0
26/07:30am 10.0 7.0 9.2 95 0.4 N 15 19 8 10 1025.5 1025.5 0.0
26/07:00am 7.6 4.5 7.2 97 0.2 N 13 15 7 8 1025.3 1025.3 0.0
26/06:30am 6.6 3.3 6.2 97 0.2 N 13 15 7 8 1025.3 1025.3 0.0
26/06:00am 4.6 1.2 4.2 97 0.2 N 11 13 6 7 1025.4 1025.4 0.0
26/05:30am 4.5 1.1 4.1 97 0.2 N 11 11 6 6 1025.3 1025.3 0.0
26/05:00am 5.1 1.8 4.7 97 0.2 N 11 13 6 7 1025.3 1025.3 0.0

Other Formats:

Comma delimited format used in spreadsheet applications
http://www.bom.gov.au/fwo/IDW60801/IDW60801.94647.axf

JavaScript Object Notation format (JSON) in row-major order
http://www.bom.gov.au/fwo/IDW60801/IDW60801.94647.json